Jefferson City, MO

3:10 AM CST on February 08, 2016 (GMT -0600)
ALGOA RD BOTTOMS | | Change Station
CLOSE
Current Station
Personal Weather Station
Location: Jefferson City, MO
Elevation: 610 ft
Nearby Weather Stations

Elev 610 ft 38.55 °N, 92.09 °W | Updated 1 minute ago

Overcast
Overcast
35.0 °F
Feels Like 27 °F
N
11.9
Wind Variable Wind from West

Today
High -- | Low -- °F
--% Chance of Precip.
Yesterday
High -- | Low -- °F
Precip. -- in
Pressure 29.87 in
Visibility 10.0 miles
Clouds Scattered Clouds 3200 ft
Overcast 4900 ft
Windchill 27 °F
Dew Point 22 °F
Humidity 60%
Rainfall 0.00 in
Snow Depth Not available.
7:07 AM 5:38 PM
Waning Crescent, 0% visible
METAR KJEF 080853Z AUTO 29019G24KT 10SM SCT032 OVC049 02/M04 A2989 RMK AO2 PK WND 30028/0841 SNB20E39 SLP113 P0000 60000 T00221044 58009 TSNO
Pressure 29.87 in
Visibility 10.0 miles
Clouds Scattered Clouds 3200 ft
Overcast 4900 ft
Windchill 27 °F
Dew Point 22 °F
Humidity 60%
Rainfall 0.00 in
Snow Depth Not available.
7:07 AM 5:38 PM
Waning Crescent, 0% visible
METAR KJEF 080853Z AUTO 29019G24KT 10SM SCT032 OVC049 02/M04 A2989 RMK AO2 PK WND 30028/0841 SNB20E39 SLP113 P0000 60000 T00221044 58009 TSNO

10-Day Weather Forecast

Almanac

Astronomy

Feb. 08, 2016 Rise Set
Actual Time
Civil Twilight
Nautical Twilight
Astronomical Twilight
Moon
Length of Visible Light
Length of Day
Tomorrow will be .
, % of the Moon is Illuminated

Today's Extremes

State Highs State Lows

Community

WunderPhotos

Upload Photos

1,891,412 photos uploaded!

WunderBlog® & News

Nearby

Air Quality

  Air Quality AQ Index Pollutant
Not available.

Snow Depth

Station Depth Elevation

Earthquake Activity

City Distance Mag. Time & Date
Minimum magnitude displayed is 2.5.

Coastal Water Temperatures

Place Temperature

Stations

Nearby Weather Stations

Station Location Temp. Windchill Dew Point Humidity Wind Precip. Elev Updated Type
                   

Watches & Warnings

There are currently no watches in effect.